METAR AND TAF INFORMATION
METAR FOR LESO
ADDS - METARS form results

(1534 UTC 23 January 2018)
Data provider http://aviationweather.gov/adds/metars/
 
METAR text: LESO 231530Z VRB02KT 9999 FEW020 BKN044 15/12 Q1029
Conditions at: LESO (SAN SEBASTIAN/FU, ES) observed 1530 UTC 23 January 2018
Temperature: 15.0°C (59°F)
Dewpoint: 12.0°C (54°F) [RH = 82%]
Pressure (altimeter): 30.38 inches Hg (1029.0 mb)
Winds: variable direction winds at 2 MPH (2 knots; 1.0 m/s)
Visibility: 6 or more miles (10+ km)
Ceiling: 4400 feet AGL
Clouds: few clouds at 2000 feet AGL
broken clouds at 4400 feet AGL
Weather: no significant weather observed at this time

METAR text: LESO 231500Z 07002KT 9999 FEW020 BKN044 15/12 Q1029
Conditions at: LESO (SAN SEBASTIAN/FU, ES) observed 1500 UTC 23 January 2018
Temperature: 15.0°C (59°F)
Dewpoint: 12.0°C (54°F) [RH = 82%]
Pressure (altimeter): 30.38 inches Hg (1029.0 mb)
Winds: from the ENE (70 degrees) at 2 MPH (2 knots; 1.0 m/s)
Visibility: 6 or more miles (10+ km)
Ceiling: 4400 feet AGL
Clouds: few clouds at 2000 feet AGL
broken clouds at 4400 feet AGL
Weather: no significant weather observed at this time

Forecast for: LESO (SAN SEBASTIAN/FU, ES)
Text: TAF LESO 231100Z 2312/2412 21005KT 9999 SCT020 TX16/2315Z TN10/2406Z
Forecast period: 1200 UTC 23 January 2018 to 1200 UTC 24 January 2018
Forecast type: FROM: standard forecast or significant change
Winds: from the SSW (210 degrees) at 6 MPH (5 knots; 2.6 m/s)
Visibility: 6 or more miles (10+ km)
Clouds: scattered clouds at 2000 feet AGL
Weather: no significant weather forecast for this period
Text: PROB30
Forecast period: 0900 to 1200 UTC 24 January 2018
Forecast type: TEMPORARY: The following changes expected for less than half the time period
Winds: from the W (270 degrees) at 12 MPH (10 knots; 5.2 m/s)
Weather: no significant weather forecast for this period

 AIRPORT MAP

 RUNWAY INFORMATION
Runway 04 Runway length 5755 ft Runway width 148 ft
Runway elevation 10 ft Runway displaced threshold 0 ft Runway heading 39
Runway 22 Runway length 5755 ft Runway width 148 ft
Runway elevation 15 ft Runway displaced threshold 0 ft Runway heading 219

 AIRPORT FREQUENCIES
Type TWR Name SAN SEBAST Frequency 119.85 MHZ

 AIRPORT NEAR NAVIGATION AIDS
Type NDB-DME Name San Sebastian Frequency 328 KHZ
Type VOR-DME Name San Sebastian Frequency 117900 KHZ



Powered by Virtual Airlines Manager [v2.6.2]